ADDS METAR Data INFO
IDs: Format: Raw Decoded Include TAF

Data at: 1508 UTC 29 May 2017

METAR for:LFQA (Reims/Prunay Aprt, --, FR)
Text:LFQA 291500Z AUTO 23007KT 200V280 9999 VCTS ///CB 30/19 Q1011
Temperature: 30.0°C ( 86°F)
Dewpoint: 19.0°C ( 66°F) [RH = 52%]
Pressure (altimeter):29.85 inches Hg (1011.0 mb)
Winds:from the SW (230 degrees) at 8 MPH (7 knots; 3.6 m/s)
Visibility:6 or more sm (10+ km)
Weather:VCTS (thunderstorm in vicinity)

TAF for:LFQA (Reims/Prunay Aprt, --, FR)
Text:No data found


Page loaded:  15:08 UTC  |   08:08 AM Pacific  |   09:08 AM Mountain  |   10:08 AM Central  |   11:08 AM Eastern

 

ADVISORIES

FORECASTS

FORECASTS

OBSERVATIONS

USER TOOLS

ABOUT US